Skip to content.

Wairarapa Tararua

  

Crofoot - CRF

Logged in to unit HSN11772 as: Guest
(Last data received Sat 24 Feb 2018 01:20:00 - 7 minutes ago)

Weather FWI Graphs Forecast Hourly FWI Daily FWI Download FWI Data

Hourly FWI Logs | Period From 01:27 17/02/2018 to 01:27 24/02/2018

Change the DoC% for the 24hr period starting 12:00pm 23/2/2018 to

If the date above is the current day, then all future logs will inherit this value until such time as it is changed again. If you wish to change historic values you can do so by going back to the day you want to alter (navigate via the graphs) and change the DoC% there (however this will only affect that day).

WindRainHourly FWIsDaily FWIsForestGrassScrub
DateTime (NZST)Temp (C)RH (%)Dir (deg)Speed (km/h)Hourly (mm)Daily (mm)FFMCISIHFWIFFMCDMCDCISIBUIFWIDSRROS (m/h)FFI (kW/m)FFDCDoC (%)ROS (m/h)GFI (kW/m)GFDCROS (m/h)SFI (kW/m)SFDC
24/02/2018 0000 15.3 84.6 353 5.8 0.0 77.9 1.3 0.8 13 4 L 75 36 62 M 199 1993 H
23/02/2018 2300 15.4 84.5 34 9.9 0.0 77.8 1.5 1.2 18 5 L 75 50 87 M 264 2639 V
23/02/2018 2200 15.3 84.6 49 12.8 0.0 77.7 1.8 1.7 23 7 L 75 62 109 M 319 3185 V
23/02/2018 2100 15.3 83.9 55 17.4 0.0 77.6 2.2 2.4 32 10 L 75 89 156 M 429 4287 E
23/02/2018 2000 15.8 80.9 77 21.1 0.0 77.4 2.6 3.0 42 13 M 75 118 207 M 540 5400 E
23/02/2018 1900 15.9 79.4 71 24.0 0.0 77.1 2.9 3.5 51 15 M 75 144 252 M 633 6327 E
23/02/2018 1800 16.9 75.0 62 28.6 0.0 76.7 3.6 4.3 68 20 M 75 198 347 M 814 8142 E
23/02/2018 1700 16.6 75.8 74 28.6 0.0 76.0 3.4 4.1 64 19 M 75 184 321 M 767 7668 E
23/02/2018 1600 17.4 73.2 75 29.8 0.0 75.2 3.5 4.2 65 19 M 75 189 330 M 784 7837 E
23/02/2018 1500 17.6 72.1 76 26.9 0.0 74.2 2.9 3.3 49 14 M 75 137 240 M 608 6080 E
23/02/2018 1400 17.6 69.2 92 23.2 0.0 73.0 2.2 2.5 34 10 L 75 93 162 M 443 4433 E
23/02/2018 1300 17.6 71.5 88 20.7 0.0 71.7 1.9 1.9 26 8 L 75 69 122 M 349 3490 V
23/02/2018 1200 17.4 71.1 90 20.3 0.0 0.0 70.4 1.8 1.7 72.2 6.6 204.1 1.9 12.3 1.9 0.1 23 7 L 75 62 109 M 319 3186 V
23/02/2018 1100 16.9 67.5 93 18.2 0.0 68.9 1.5 0.9 15 3 L 75 48 85 M 258 2584 V
23/02/2018 1000 17.0 70.7 131 9.9 0.0 67.2 0.9 0.6 7 1 L 75 22 39 M 133 1326 H
23/02/2018 0900 16.8 67.0 204 7.5 0.0 65.7 0.8 0.5 5 1 L 75 16 29 M 103 1029 H
23/02/2018 0800 16.5 64.8 219 9.9 0.0 64.1 0.8 0.5 6 1 L 75 18 32 M 112 1123 H
23/02/2018 0700 13.1 71.2 268 15.7 0.0 62.2 1.0 0.6 8 2 L 75 26 45 M 150 1501 H
23/02/2018 0600 12.0 76.1 287 17.4 0.0 60.5 1.0 0.6 8 2 L 75 25 44 M 147 1474 H
23/02/2018 0500 12.2 76.3 276 22.4 0.0 58.9 1.2 0.7 10 2 L 75 32 56 M 182 1823 H
23/02/2018 0400 12.0 77.7 297 21.9 0.0 57.1 1.0 0.6 8 2 L 75 25 43 M 147 1465 H
23/02/2018 0300 11.9 81.2 305 18.6 0.0 55.3 0.7 0.5 5 1 L 75 15 25 M 93 927 H
23/02/2018 0200 12.1 80.7 289 22.8 0.0 53.7 0.8 0.5 5 1 L 75 16 28 M 101 1010 H
23/02/2018 0100 11.8 81.3 295 24.4 0.0 51.9 0.7 0.4 4 1 L 75 13 23 M 86 864 H
23/02/2018 0000 11.9 82.6 296 21.9 0.0 50.0 0.5 0.3 2 1 L 75 7 13 M 52 522 H
WindRainHourly FWIsDaily FWIsForestGrassScrub
DateTime (NZST)Temp (C)RH (%)Dir (deg)Speed (km/h)Hourly (mm)Daily (mm)FFMCISIHFWIFFMCDMCDCISIBUIFWIDSRROS (m/h)FFI (kW/m)FFDCDoC (%)ROS (m/h)GFI (kW/m)GFDCROS (m/h)SFI (kW/m)SFDC
22/02/2018 2300 12.3 79.7 282 19.0 0.0 48.2 0.3 0.2 1 0 L 75 4 7 L 30 299 M
22/02/2018 2200 12.6 80.6 270 20.3 0.0 46.1 0.3 0.2 1 0 L 75 3 5 L 21 213 M
22/02/2018 2100 12.6 81.9 259 23.6 0.0 43.9 0.2 0.1 1 0 L 75 2 4 L 17 166 M
22/02/2018 2000 13.0 82.4 247 29.8 0.0 41.7 0.2 0.1 1 0 L 75 2 3 L 15 150 M
22/02/2018 1900 13.1 83.3 237 31.5 0.0 39.1 0.1 0.1 0 0 L 75 1 2 L 8 84 M
22/02/2018 1800 14.3 78.4 220 48.0 0.0 36.5 0.2 0.1 1 0 L 75 2 3 L 14 143 M
22/02/2018 1700 14.6 80.9 217 53.0 0.0 32.6 0.1 0.1 0 0 L 75 0 1 L 4 37 M
22/02/2018 1600 15.1 77.8 216 52.6 0.0 28.7 0.0 0.0 0 0 L 75 0 0 L 1 8 L
22/02/2018 1500 15.3 75.6 218 58.0 0.0 24.2 0.0 0.0 0 0 L 75 0 0 L 0 1 L
22/02/2018 1400 15.1 78.7 216 58.0 0.0 19.1 0.0 0.0 0 0 L 75 0 0 L 0 0 L
22/02/2018 1300 14.8 80.2 225 48.9 0.0 14.3 0.0 0.0 0 0 L 75 0 0 L 0 0 L
22/02/2018 1200 15.4 78.0 223 49.3 0.0 26.6 10.0 0.0 0.0 51.8 5.6 198.0 2.4 10.4 2.4 0.1 0 0 L 75 0 0 L 0 0 L
22/02/2018 1100 15.1 85.0 224 46.8 0.2 5.3 0.0 0.0 0 0 L 75 0 0 L 0 0 L
22/02/2018 1000 13.1 92.0 226 35.2 0.2 2.5 0.0 0.0 0 0 L 75 0 0 L 0 0 L
22/02/2018 0900 12.4 93.5 245 35.2 0.8 1.5 0.0 0.0 0 0 L 75 0 0 L 0 0 L
22/02/2018 0800 12.3 95.6 220 35.2 4.2 1.1 0.0 0.0 0 0 L 75 0 0 L 0 0 L
22/02/2018 0700 12.3 95.9 214 39.3 7.2 1.7 0.0 0.0 0 0 L 75 0 0 L 0 0 L
22/02/2018 0600 12.1 96.3 214 35.6 4.0 5.1 0.0 0.0 0 0 L 75 0 0 L 0 0 L
22/02/2018 0500 12.6 96.3 214 35.2 4.4 9.9 0.0 0.0 0 0 L 75 0 0 L 0 0 L
22/02/2018 0400 12.5 95.9 214 38.5 4.6 24.0 0.0 0.0 0 0 L 75 0 0 L 0 0 L
22/02/2018 0300 12.6 94.5 216 34.4 1.0 63.0 2.7 4.6 67 67 M 75 128 224 M 575 5752 E
22/02/2018 0200 13.5 92.3 222 35.6 0.0 82.9 9.6 14.1 369 370 M 75 887 1552 H 2380 23799 E
22/02/2018 0100 14.3 89.9 229 24.4 0.0 83.9 6.2 9.9 218 218 M 75 469 821 H 1552 15523 E
22/02/2018 0000 14.9 84.6 282 12.8 0.0 84.8 3.9 6.6 115 115 M 75 229 401 M 910 9104 E
21/02/2018 2300 15.1 77.8 340 21.9 0.0 85.4 6.8 10.6 242 242 M 75 531 928 H 1693 16931 E
21/02/2018 2200 15.5 73.9 21 16.1 0.0 85.9 5.4 8.8 178 179 M 75 373 653 H 1316 13159 E
WindRainHourly FWIsDaily FWIsForestGrassScrub
DateTime (NZST)Temp (C)RH (%)Dir (deg)Speed (km/h)Hourly (mm)Daily (mm)FFMCISIHFWIFFMCDMCDCISIBUIFWIDSRROS (m/h)FFI (kW/m)FFDCDoC (%)ROS (m/h)GFI (kW/m)GFDCROS (m/h)SFI (kW/m)SFDC
21/02/2018 2100 16.1 70.0 5 15.3 0.0 86.2 5.4 8.8 180 180 M 75 376 657 H 1323 13226 E
21/02/2018 2000 16.9 64.9 323 14.5 0.0 86.4 5.3 8.7 178 178 M 75 371 649 H 1310 13101 E
21/02/2018 1900 18.0 58.6 337 23.6 0.0 86.5 8.6 12.9 325 325 M 75 755 1322 H 2149 21487 E
21/02/2018 1800 19.8 50.2 344 36.4 0.0 86.5 16.4 21.0 626 627 H 75 1829 3201 V 3556 35557 E
21/02/2018 1700 20.2 51.0 345 53.4 0.0 86.4 30.6 32.3 917 918 H 75 3677 6434 E 4578 45785 E
21/02/2018 1600 21.3 48.0 340 39.7 0.0 86.2 18.4 22.8 685 686 H 75 2108 3690 V 3791 37913 E
21/02/2018 1500 21.7 45.4 331 40.2 0.0 85.8 28.1 30.5 884 885 H 75 3378 5911 E 4481 44808 E
21/02/2018 1400 22.1 44.0 345 44.3 0.0 85.1 25.6 28.7 846 847 H 75 3079 5389 E 4363 43629 E
21/02/2018 1300 21.8 49.6 337 38.5 0.0 84.2 13.1 17.8 514 514 H 75 1371 2399 V 3071 30713 E
21/02/2018 1200 21.5 45.5 345 63.3 0.0 0.2 83.4 20.3 24.4 80.3 11.9 264.6 14.1 21.4 18.8 4.9 736 737 H 75 2373 4154 E 3981 39814 E
21/02/2018 1100 21.4 47.0 332 44.3 0.0 82.0 17.0 19.6 572 365 M 75 1925 3368 V 3641 36406 E
21/02/2018 1000 20.4 52.6 351 44.7 0.0 80.5 14.4 17.3 496 316 M 75 1554 2720 V 3282 32819 E
21/02/2018 0900 19.3 59.4 353 37.3 0.0 79.1 6.8 9.6 216 137 M 75 535 936 H 1703 17033 E
21/02/2018 0800 18.5 61.0 1 21.9 0.0 77.9 2.8 4.2 62 40 M 75 134 235 M 598 5985 E
21/02/2018 0700 18.1 61.2 16 19.5 0.0 76.8 2.3 3.3 45 29 M 75 96 167 M 454 4542 E
21/02/2018 0600 18.2 65.8 12 25.3 0.0 75.6 2.8 4.2 63 40 M 75 136 238 M 603 6031 E
21/02/2018 0500 18.7 67.4 22 20.7 0.0 74.4 2.1 3.0 40 25 M 75 84 146 M 406 4063 E
21/02/2018 0400 19.0 70.8 12 21.9 0.0 73.1 2.1 3.0 40 25 M 75 84 147 M 408 4081 E
21/02/2018 0300 18.8 78.0 0 41.4 0.0 71.7 8.0 10.9 263 167 M 75 677 1185 H 1999 19991 E
21/02/2018 0200 20.1 71.2 8 57.5 0.0 70.3 7.6 10.5 248 158 M 75 630 1103 H 1906 19057 E
21/02/2018 0100 20.5 67.7 4 68.3 0.0 67.8 7.0 9.8 224 143 M 75 561 981 H 1759 17588 E
21/02/2018 0000 20.9 69.7 349 60.0 0.0 64.5 6.2 8.8 191 122 M 75 465 814 H 1543 15430 E
20/02/2018 2300 21.8 67.2 3 74.5 0.0 60.8 5.2 7.5 150 95 M 75 351 615 H 1259 12589 E
20/02/2018 2200 22.6 63.8 1 85.7 0.0 55.8 3.6 5.4 90 57 M 75 200 350 M 820 8201 E
20/02/2018 2100 23.7 60.5 3 108.9 0.0 49.3 1.8 2.4 31 20 M 75 65 114 M 330 3298 V
20/02/2018 2000 25.3 57.0 17 90.7 0.2 40.4 0.4 0.4 3 2 L 75 6 11 M 45 450 M
WindRainHourly FWIsDaily FWIsForestGrassScrub
DateTime (NZST)Temp (C)RH (%)Dir (deg)Speed (km/h)Hourly (mm)Daily (mm)FFMCISIHFWIFFMCDMCDCISIBUIFWIDSRROS (m/h)FFI (kW/m)FFDCDoC (%)ROS (m/h)GFI (kW/m)GFDCROS (m/h)SFI (kW/m)SFDC
20/02/2018 1900 20.5 85.3 53 63.3 0.0 31.6 0.1 0.1 0 0 L 75 0 0 L 2 24 M
20/02/2018 1800 20.0 89.2 50 40.6 0.0 27.0 0.0 0.0 0 0 L 75 0 0 L 0 4 L
20/02/2018 1700 20.6 88.2 49 56.3 0.0 24.0 0.0 0.0 0 0 L 75 0 0 L 0 1 L
20/02/2018 1600 20.4 90.2 67 34.8 0.0 20.1 0.0 0.0 0 0 L 75 0 0 L 0 0 L
20/02/2018 1500 21.8 92.0 52 32.7 0.0 17.2 0.0 0.0 0 0 L 75 0 0 L 0 0 L
20/02/2018 1400 20.6 98.5 62 26.9 0.0 14.7 0.0 0.0 0 0 L 75 0 0 L 0 0 L
20/02/2018 1300 19.9 98.5 58 21.1 0.0 14.3 0.0 0.0 0 0 L 75 0 0 L 0 0 L
20/02/2018 1200 19.1 98.5 64 29.0 0.0 8.8 13.8 0.0 0.0 25.9 9.5 257.7 0.0 17.3 0.0 0.0 0 0 L 75 0 0 L 0 0 L
20/02/2018 1100 18.6 98.6 65 23.2 0.4 13.4 0.0 0.0 0 0 L 75 0 0 L 0 0 L
20/02/2018 1000 18.1 98.3 64 21.5 0.4 14.1 0.0 0.0 0 0 L 75 0 0 L 0 0 L
20/02/2018 0900 17.7 98.1 58 23.6 0.8 14.9 0.0 0.0 0 0 L 75 0 0 L 0 0 L
20/02/2018 0800 17.8 97.9 74 21.9 1.0 17.1 0.0 0.0 0 0 L 75 0 0 L 0 0 L
20/02/2018 0700 17.1 97.5 52 25.7 1.2 20.8 0.0 0.0 0 0 L 75 0 0 L 0 0 L
20/02/2018 0600 17.6 97.1 53 21.5 1.4 26.7 0.0 0.0 0 0 L 75 0 0 L 0 0 L
20/02/2018 0500 17.8 96.8 47 28.2 0.6 36.7 0.1 0.1 0 0 L 75 0 1 L 3 31 M
20/02/2018 0400 18.1 95.3 48 19.5 0.0 41.6 0.1 0.2 0 1 L 75 1 1 L 7 68 M
20/02/2018 0300 18.3 93.3 52 17.4 0.8 40.7 0.1 0.1 0 1 L 75 0 1 L 5 46 M
20/02/2018 0200 18.9 90.2 56 8.3 1.4 48.4 0.2 0.2 1 2 L 75 2 3 L 14 140 M
20/02/2018 0100 19.6 87.4 341 40.2 0.8 68.7 7.2 13.7 310 679 H 75 583 1020 H 1807 18072 E
20/02/2018 0000 20.5 82.4 356 36.8 0.0 84.8 13.2 21.5 609 1334 H 75 1377 2410 V 3079 30794 E
19/02/2018 2300 20.1 82.0 342 38.1 0.0 85.4 15.1 23.8 692 1517 H 75 1656 2898 V 3389 33887 E
19/02/2018 2200 20.3 78.4 345 34.4 0.0 86.1 13.8 22.3 638 1399 H 75 1472 2576 V 3190 31903 E
19/02/2018 2100 21.0 70.1 268 7.9 0.0 86.7 4.0 8.4 138 302 M 75 233 407 M 922 9216 E
19/02/2018 2000 21.7 65.3 7 13.2 0.0 86.9 5.4 10.8 210 461 M 75 372 651 H 1313 13127 E
19/02/2018 1900 22.2 61.5 342 48.0 0.0 87.0 33.3 40.4 1117 2448 V 75 3970 6948 E 4657 46573 E
19/02/2018 1800 22.5 60.9 352 36.0 0.0 87.0 17.0 25.8 764 1674 H 75 1922 3363 V 3638 36381 E
WindRainHourly FWIsDaily FWIsForestGrassScrub
DateTime (NZST)Temp (C)RH (%)Dir (deg)Speed (km/h)Hourly (mm)Daily (mm)FFMCISIHFWIFFMCDMCDCISIBUIFWIDSRROS (m/h)FFI (kW/m)FFDCDoC (%)ROS (m/h)GFI (kW/m)GFDCROS (m/h)SFI (kW/m)SFDC
19/02/2018 1700 23.0 59.4 24 7.5 0.0 87.0 4.0 8.5 142 310 M 75 239 418 M 941 9414 E
19/02/2018 1600 23.3 57.1 356 32.3 0.0 87.0 14.1 22.6 650 1425 H 75 1511 2644 V 3234 32345 E
19/02/2018 1500 23.6 57.9 347 46.8 0.0 87.0 33.3 40.4 1117 2448 V 75 3970 6948 E 4657 46573 E
19/02/2018 1400 23.9 55.2 346 52.2 0.0 87.0 33.3 40.4 1117 2448 V 75 3970 6948 E 4657 46573 E
19/02/2018 1300 24.6 53.8 342 43.5 0.0 86.9 33.1 40.2 1115 2443 V 75 3951 6915 E 4653 46527 E
19/02/2018 1200 24.0 54.6 347 42.6 0.0 0.0 86.8 32.4 39.7 87.3 18.4 274.2 35.1 31.5 41.8 20.1 1107 2426 V 75 3880 6790 E 4635 46348 E
19/02/2018 1100 24.1 54.8 346 49.7 0.0 86.7 31.9 37.3 1053 1833 H 75 3824 6691 E 4620 46199 E
19/02/2018 1000 23.6 55.3 347 41.0 0.0 86.5 31.3 36.8 1045 1819 H 75 3752 6566 E 4600 46002 E
19/02/2018 0900 22.6 56.2 350 39.7 0.0 86.4 19.0 26.3 794 1381 H 75 2194 3839 V 3856 38560 E
19/02/2018 0800 21.6 61.0 352 38.9 0.0 86.3 18.0 25.4 764 1329 H 75 2060 3606 V 3754 37536 E
19/02/2018 0700 20.4 66.0 349 23.2 0.0 86.3 8.2 14.2 346 602 H 75 702 1229 H 2048 20480 E
19/02/2018 0600 20.1 66.4 342 31.5 0.0 86.4 12.4 19.5 551 958 H 75 1274 2230 V 2951 29508 E
19/02/2018 0500 20.2 65.9 351 27.3 0.0 86.4 10.2 16.8 447 777 H 75 965 1689 H 2508 25084 E
19/02/2018 0400 20.5 64.0 309 17.4 0.0 86.5 6.2 11.5 245 427 M 75 467 816 H 1547 15465 E
19/02/2018 0300 21.1 62.4 339 29.8 0.0 86.5 11.6 18.6 514 894 H 75 1161 2032 V 2799 27989 E
19/02/2018 0200 21.2 66.6 347 72.0 0.0 86.5 31.0 36.6 1042 1813 H 75 3721 6512 E 4591 45914 E
19/02/2018 0100 21.4 66.8 350 82.4 0.0 86.5 31.3 36.9 1046 1820 H 75 3757 6575 E 4602 46016 E
19/02/2018 0000 21.6 67.8 345 82.4 0.0 86.6 31.8 37.2 1052 1830 H 75 3809 6665 E 4616 46159 E
18/02/2018 2300 21.5 68.7 346 89.8 0.0 86.8 32.6 37.9 1062 1848 H 75 3903 6831 E 4641 46407 E
18/02/2018 2200 21.9 67.2 344 75.8 0.0 87.2 34.2 39.1 1079 1877 H 75 4069 7121 E 4681 46806 E
18/02/2018 2100 22.3 63.9 359 12.8 0.0 87.5 5.7 10.7 218 380 M 75 408 714 H 1404 14042 E
18/02/2018 2000 22.7 60.0 349 38.9 0.0 87.6 21.5 28.7 864 1504 H 75 2539 4443 E 4086 40856 E
18/02/2018 1900 23.1 58.8 41 27.7 0.0 87.6 12.2 19.3 543 944 H 75 1249 2186 V 2918 29181 E
18/02/2018 1800 25.0 52.6 339 38.9 0.0 87.6 21.5 28.7 864 1504 H 75 2539 4443 E 4086 40856 E
18/02/2018 1700 26.1 48.3 341 38.9 0.0 87.5 21.4 28.6 861 1498 H 75 2522 4413 E 4075 40754 E
18/02/2018 1600 26.0 52.5 348 57.1 0.0 87.2 34.5 39.3 1082 1882 H 75 4098 7172 E 4687 46871 E
WindRainHourly FWIsDaily FWIsForestGrassScrub
DateTime (NZST)Temp (C)RH (%)Dir (deg)Speed (km/h)Hourly (mm)Daily (mm)FFMCISIHFWIFFMCDMCDCISIBUIFWIDSRROS (m/h)FFI (kW/m)FFDCDoC (%)ROS (m/h)GFI (kW/m)GFDCROS (m/h)SFI (kW/m)SFDC
18/02/2018 1500 26.0 50.7 347 64.2 0.0 87.0 33.4 38.5 1071 1862 H 75 3986 6975 E 4661 46611 E
18/02/2018 1400 25.9 50.2 349 55.5 0.0 86.6 31.5 37.0 1049 1824 H 75 3779 6614 E 4608 46078 E
18/02/2018 1300 25.9 53.1 343 44.7 0.0 86.0 29.2 35.2 1017 1770 H 75 3516 6153 E 4528 45283 E
18/02/2018 1200 25.3 55.4 344 45.5 0.0 0.0 85.5 27.3 33.7 87.3 16.1 266.9 34.9 28.0 39.6 18.3 986 1716 H 75 3282 5743 E 4445 44451 E
18/02/2018 1100 24.8 64.4 4 34.8 0.0 85.1 12.3 18.0 512 669 H 75 1253 2193 V 2923 29228 E
18/02/2018 1000 24.1 64.3 9 38.1 0.0 84.9 14.2 20.1 591 772 H 75 1529 2676 V 3255 32546 E
18/02/2018 0900 22.6 71.9 8 37.7 0.0 84.8 13.7 19.6 569 744 H 75 1451 2540 V 3167 31666 E
18/02/2018 0800 21.9 74.0 4 49.3 0.0 84.8 24.6 29.5 881 1152 H 75 2947 5157 E 4303 43030 E
18/02/2018 0700 20.9 75.0 353 44.7 0.0 84.8 24.6 29.5 881 1152 H 75 2947 5157 E 4303 43030 E
18/02/2018 0600 20.4 76.4 354 48.4 0.0 84.9 24.8 29.7 886 1157 H 75 2975 5206 E 4316 43162 E
18/02/2018 0500 20.3 75.5 355 45.5 0.0 85.1 25.5 30.2 898 1174 H 75 3059 5353 E 4354 43540 E
18/02/2018 0400 20.3 75.3 357 43.1 0.0 85.2 26.2 30.8 910 1190 H 75 3145 5504 E 4391 43907 E
18/02/2018 0300 20.1 75.0 344 43.1 0.0 85.5 27.0 31.4 924 1208 H 75 3249 5686 E 4433 44327 E
18/02/2018 0200 20.2 74.1 3 28.2 0.0 85.8 9.7 15.1 397 519 H 75 898 1571 H 2399 23988 E
18/02/2018 0100 20.6 71.6 359 36.0 0.0 86.0 14.9 20.8 615 804 H 75 1623 2840 V 3354 33543 E
18/02/2018 0000 21.1 69.5 351 38.5 0.0 86.2 17.4 23.2 700 915 H 75 1972 3452 V 3681 36815 E
17/02/2018 2300 21.3 69.7 341 39.7 0.0 86.4 18.9 24.6 745 973 H 75 2180 3815 V 3846 38457 E
17/02/2018 2200 21.9 64.6 331 34.8 0.0 86.5 15.1 21.0 622 813 H 75 1648 2884 V 3380 33804 E
17/02/2018 2100 21.9 66.0 340 50.9 0.0 86.5 31.4 34.7 985 1288 H 75 3762 6584 E 4603 46031 E
17/02/2018 2000 22.6 68.0 340 59.2 0.0 86.6 31.5 34.8 987 1290 H 75 3775 6606 E 4607 46066 E
17/02/2018 1900 23.4 65.5 345 58.8 0.0 86.7 32.0 35.2 993 1298 H 75 3833 6708 E 4622 46224 E
17/02/2018 1800 24.4 61.7 337 36.0 0.0 86.7 16.4 22.3 667 872 H 75 1831 3204 V 3557 35575 E
17/02/2018 1700 25.3 58.8 348 41.4 0.0 86.7 32.0 35.2 993 1298 H 75 3833 6708 E 4622 46224 E
17/02/2018 1600 26.3 54.0 341 52.6 0.0 86.7 32.0 35.2 993 1298 H 75 3832 6705 E 4622 46221 E
17/02/2018 1500 26.6 52.9 336 42.6 0.0 86.4 30.6 34.2 976 1276 H 75 3679 6438 E 4579 45791 E
17/02/2018 1400 25.7 53.3 342 46.0 0.0 85.9 28.7 32.8 951 1243 H 75 3459 6053 E 4509 45091 E
WindRainHourly FWIsDaily FWIsForestGrassScrub
DateTime (NZST)Temp (C)RH (%)Dir (deg)Speed (km/h)Hourly (mm)Daily (mm)FFMCISIHFWIFFMCDMCDCISIBUIFWIDSRROS (m/h)FFI (kW/m)FFDCDoC (%)ROS (m/h)GFI (kW/m)GFDCROS (m/h)SFI (kW/m)SFDC
17/02/2018 1300 24.3 61.6 350 36.8 0.0 85.4 14.3 20.2 592 774 H 75 1535 2686 V 3261 32609 E
17/02/2018 1200 23.4 63.2 357 46.4 0.0 0.0 85.3 26.2 30.8 86.8 13.8 259.3 32.4 24.3 35.5 15.1 911 1191 H 75 3151 5513 E 4393 43930 E
17/02/2018 1100 22.5 62.0 2 33.1 0.0 85.2 11.4 16.1 448 450 M 75 1139 1994 H 2768 27683 E
17/02/2018 1000 22.1 62.2 358 38.9 0.0 85.1 15.1 19.8 585 587 H 75 1650 2887 V 3382 33823 E
17/02/2018 0900 21.6 67.3 1 55.1 0.0 84.9 25.1 28.3 837 840 H 75 3008 5264 E 4331 43312 E
17/02/2018 0800 21.2 72.4 344 56.7 0.0 84.9 25.1 28.3 837 840 H 75 3008 5264 E 4331 43312 E
17/02/2018 0700 20.9 72.5 349 48.9 0.0 84.9 25.1 28.3 837 840 H 75 3008 5264 E 4331 43312 E
17/02/2018 0600 20.3 71.9 351 52.2 0.0 84.9 25.1 28.3 837 840 H 75 3008 5264 E 4331 43312 E
17/02/2018 0500 20.3 71.4 346 50.1 0.0 84.9 25.1 28.3 837 840 H 75 3008 5264 E 4331 43312 E
17/02/2018 0400 20.4 72.8 349 60.4 0.0 84.9 25.1 28.3 837 840 H 75 3008 5264 E 4331 43312 E
17/02/2018 0300 20.6 73.5 350 60.4 0.0 84.9 25.1 28.3 837 840 H 75 3008 5265 E 4331 43314 E
17/02/2018 0200 20.5 75.2 344 46.8 0.0 85.0 25.2 28.4 839 842 H 75 3023 5291 E 4338 43382 E
17/02/2018 0100 20.4 77.3 349 27.7 0.0 85.1 8.7 13.0 329 330 M 75 768 1343 H 2171 21711 E